createdAt,value
2019-03-03T00:00:22.741Z,7.40
2019-03-03T00:02:51.409Z,7.20
2019-03-03T00:05:19.953Z,7.40
2019-03-03T00:07:48.534Z,7.90
2019-03-03T00:10:17.214Z,8.00
2019-03-03T00:12:45.793Z,7.80
2019-03-03T00:15:14.482Z,7.50
2019-03-03T00:17:43.081Z,7.30
2019-03-03T00:20:15.449Z,7.40
2019-03-03T00:25:13.578Z,7.40
2019-03-03T00:27:42.117Z,7.40
2019-03-03T00:30:13.440Z,7.50
2019-03-03T00:32:42.019Z,7.40
2019-03-03T00:35:10.649Z,7.50
2019-03-03T00:37:57.081Z,7.60
2019-03-03T00:43:19.246Z,7.40
2019-03-03T00:46:01.404Z,7.60
2019-03-03T00:48:48.066Z,7.40
2019-03-03T00:54:03.350Z,7.50
2019-03-03T00:56:33.537Z,7.40
2019-03-03T00:59:09.508Z,7.50
2019-03-03T01:01:39.705Z,7.60
2019-03-03T01:04:12.841Z,7.70
2019-03-03T01:06:52.378Z,7.60
2019-03-03T01:09:45.569Z,8.00
2019-03-03T01:14:48.969Z,7.60
2019-03-03T01:17:28.433Z,7.50
2019-03-03T01:22:31.218Z,7.60
2019-03-03T01:24:59.794Z,7.80
2019-03-03T01:27:28.415Z,7.80
2019-03-03T01:29:57.060Z,7.50
2019-03-03T01:32:25.625Z,7.50
2019-03-03T01:34:54.298Z,7.70
2019-03-03T01:37:22.833Z,7.90
2019-03-03T01:39:51.413Z,7.70
2019-03-03T01:42:19.980Z,8.00
2019-03-03T01:44:48.538Z,7.50
2019-03-03T01:47:17.077Z,7.60
2019-03-03T01:49:45.654Z,7.70
2019-03-03T01:52:14.197Z,7.80
2019-03-03T01:54:42.834Z,8.10
2019-03-03T01:57:11.427Z,8.00
2019-03-03T01:59:40.036Z,8.00
2019-03-03T02:02:08.677Z,7.60
2019-03-03T02:04:37.230Z,7.60
2019-03-03T02:07:05.897Z,7.70
2019-03-03T02:09:34.529Z,7.80
2019-03-03T02:12:03.186Z,7.60
2019-03-03T02:14:31.729Z,7.90
2019-03-03T02:17:00.305Z,7.70
2019-03-03T02:19:29.113Z,7.60
2019-03-03T02:21:57.685Z,7.60
2019-03-03T02:24:26.334Z,7.80
2019-03-03T02:26:54.969Z,7.80
2019-03-03T02:29:23.513Z,8.30
2019-03-03T02:31:52.118Z,7.60
2019-03-03T02:34:20.654Z,7.50
2019-03-03T02:36:49.702Z,7.70
2019-03-03T02:39:18.478Z,7.80
2019-03-03T02:41:47.115Z,8.40
2019-03-03T02:46:43.898Z,8.00
2019-03-03T02:49:12.515Z,7.60
2019-03-03T02:51:41.150Z,7.70
2019-03-03T02:54:09.693Z,7.80
2019-03-03T02:56:38.330Z,7.50
2019-03-03T03:01:36.758Z,7.70
2019-03-03T03:04:05.634Z,7.70
2019-03-03T03:06:38.642Z,7.60
2019-03-03T03:11:47.621Z,7.60
2019-03-03T03:17:20.738Z,7.90
2019-03-03T03:20:02.712Z,7.80
2019-03-03T03:22:38.682Z,7.60
2019-03-03T03:25:09.233Z,8.00
2019-03-03T03:27:41.907Z,7.90
2019-03-03T03:30:12.158Z,7.60
2019-03-03T03:32:42.370Z,7.70
2019-03-03T03:35:27.374Z,7.70
2019-03-03T03:38:03.641Z,7.90
2019-03-03T03:40:36.982Z,7.70
2019-03-03T03:43:09.869Z,8.00
2019-03-03T03:45:42.729Z,7.70
2019-03-03T03:48:18.638Z,7.60
2019-03-03T03:56:03.681Z,7.50
2019-03-03T03:58:34.226Z,7.50
2019-03-03T04:01:10.273Z,7.40
2019-03-03T04:03:58.895Z,7.70
2019-03-03T04:06:44.454Z,7.70
2019-03-03T04:09:22.498Z,7.80
2019-03-03T04:11:52.685Z,7.60
2019-03-03T04:14:28.683Z,7.50
2019-03-03T04:22:18.373Z,7.50
2019-03-03T04:30:22.190Z,8.50
2019-03-03T04:32:52.344Z,7.80
2019-03-03T04:35:25.276Z,7.60
2019-03-03T04:37:55.453Z,7.80
2019-03-03T04:40:25.669Z,8.10
2019-03-03T04:42:58.586Z,8.60
2019-03-03T04:45:28.801Z,7.70
2019-03-03T04:47:58.990Z,7.70
2019-03-03T04:50:29.197Z,7.70
2019-03-03T04:53:08.073Z,7.80
2019-03-03T04:58:32.181Z,7.80
2019-03-03T05:01:04.874Z,8.10
2019-03-03T05:03:35.056Z,8.30
2019-03-03T05:06:05.406Z,8.20
2019-03-03T05:08:35.594Z,8.30
2019-03-03T05:11:11.813Z,7.70
2019-03-03T05:13:41.992Z,7.90
2019-03-03T05:16:15.313Z,8.00
2019-03-03T05:18:45.496Z,7.70
2019-03-03T05:21:14.146Z,7.70
2019-03-03T05:23:42.676Z,7.90
2019-03-03T05:26:11.249Z,8.00
2019-03-03T05:28:39.862Z,8.00
2019-03-03T05:31:08.435Z,8.00
2019-03-03T05:33:36.969Z,7.60
2019-03-03T05:36:05.614Z,7.80
2019-03-03T05:38:34.221Z,7.90
2019-03-03T05:41:02.790Z,8.00
2019-03-03T05:43:31.332Z,8.00
2019-03-03T05:45:59.900Z,8.10
2019-03-03T05:48:28.514Z,8.10
2019-03-03T05:50:57.121Z,7.70
2019-03-03T05:53:25.690Z,7.80
2019-03-03T05:55:54.305Z,8.10
2019-03-03T05:58:22.873Z,8.10
2019-03-03T06:00:51.418Z,8.10
2019-03-03T06:03:19.990Z,8.20
2019-03-03T06:05:48.525Z,7.90
2019-03-03T06:10:45.309Z,8.00
2019-03-03T06:13:13.945Z,8.10
2019-03-03T06:15:42.493Z,8.00
2019-03-03T06:18:11.070Z,8.20
2019-03-03T06:20:39.634Z,7.80
2019-03-03T06:23:08.179Z,7.90
2019-03-03T06:28:05.035Z,8.10
2019-03-03T06:30:33.578Z,8.20
2019-03-03T06:33:02.144Z,8.10
2019-03-03T06:35:30.682Z,8.00
2019-03-03T06:37:59.252Z,8.00
2019-03-03T06:40:27.793Z,8.30
2019-03-03T06:42:56.361Z,8.50
2019-03-03T06:45:24.969Z,8.60
2019-03-03T06:47:53.538Z,8.20
2019-03-03T06:50:22.082Z,8.40
2019-03-03T06:52:50.648Z,8.60
2019-03-03T06:55:19.190Z,8.60
2019-03-03T07:00:17.323Z,8.30
2019-03-03T07:02:45.958Z,8.40
2019-03-03T07:05:14.568Z,8.50
2019-03-03T07:07:43.117Z,8.70
2019-03-03T07:10:13.425Z,8.70
2019-03-03T07:12:41.966Z,8.60
2019-03-03T07:15:13.081Z,8.80
2019-03-03T07:17:41.617Z,9.00
2019-03-03T07:22:40.005Z,9.10
2019-03-03T07:25:15.097Z,9.00
2019-03-03T07:27:43.637Z,9.10
2019-03-03T07:30:16.373Z,9.10
2019-03-03T07:32:46.630Z,9.20
2019-03-03T07:35:15.203Z,8.80
2019-03-03T07:37:43.736Z,9.30
2019-03-03T07:40:12.377Z,9.20
2019-03-03T07:42:40.920Z,9.00
2019-03-03T07:45:14.704Z,9.10
2019-03-03T07:47:43.316Z,9.10
2019-03-03T07:50:12.232Z,9.90
2019-03-03T07:52:40.766Z,9.60
2019-03-03T07:55:10.486Z,9.20
2019-03-03T07:57:39.153Z,9.30
2019-03-03T08:02:40.474Z,9.40
2019-03-03T08:05:09.992Z,9.20
2019-03-03T08:07:38.661Z,9.40
2019-03-03T08:10:15.076Z,9.50
2019-03-03T08:12:43.689Z,9.60
2019-03-03T08:15:17.154Z,9.50
2019-03-03T08:17:45.833Z,9.70
2019-03-03T08:20:15.252Z,9.70
2019-03-03T08:22:43.861Z,9.30
2019-03-03T08:25:13.273Z,9.40
2019-03-03T08:30:12.499Z,9.60
2019-03-03T08:32:41.042Z,9.60
2019-03-03T08:35:20.802Z,9.90
2019-03-03T08:40:17.655Z,10.30
2019-03-03T08:42:59.869Z,9.80
2019-03-03T08:48:20.721Z,10.00
2019-03-03T08:53:23.772Z,10.00
2019-03-03T08:55:54.001Z,10.20
2019-03-03T08:58:26.709Z,10.10
2019-03-03T09:01:05.881Z,10.10
2019-03-03T09:03:42.057Z,10.40
2019-03-03T09:06:15.028Z,10.20
2019-03-03T09:08:45.223Z,10.60
2019-03-03T09:11:27.791Z,10.40
2019-03-03T09:13:57.977Z,11.00
2019-03-03T09:19:23.658Z,10.60
2019-03-03T09:21:53.913Z,10.70
2019-03-03T09:24:29.754Z,10.70
2019-03-03T09:29:49.025Z,11.20
2019-03-03T09:32:19.244Z,10.90
2019-03-03T09:34:49.433Z,11.00
2019-03-03T09:40:09.524Z,10.80
2019-03-03T09:42:46.372Z,11.00
2019-03-03T09:45:19.359Z,10.90
2019-03-03T09:48:04.548Z,11.40
2019-03-03T09:50:37.733Z,11.60
2019-03-03T09:53:13.954Z,11.50
2019-03-03T09:55:49.965Z,11.60
2019-03-03T10:01:05.738Z,11.40
2019-03-03T10:03:41.819Z,11.20
2019-03-03T10:06:30.625Z,11.30
2019-03-03T10:09:19.295Z,11.40
2019-03-03T10:11:52.485Z,11.30
2019-03-03T10:14:22.677Z,11.10
2019-03-03T10:16:55.665Z,11.10
2019-03-03T10:19:34.554Z,11.60
2019-03-03T10:22:10.734Z,11.10
2019-03-03T10:24:40.982Z,11.20
2019-03-03T10:27:11.169Z,11.20
2019-03-03T10:29:57.749Z,11.30
2019-03-03T10:32:36.978Z,11.40
2019-03-03T10:35:18.465Z,11.40
2019-03-03T10:37:48.752Z,11.30
2019-03-03T10:40:19.010Z,11.30
2019-03-03T10:42:52.294Z,11.40
2019-03-03T10:45:22.484Z,11.50
2019-03-03T10:47:55.717Z,11.50
2019-03-03T10:50:28.630Z,11.30
2019-03-03T10:53:01.568Z,11.20
2019-03-03T10:55:53.785Z,11.30
2019-03-03T11:01:06.381Z,11.30
2019-03-03T11:03:36.670Z,11.40
2019-03-03T11:06:07.104Z,11.20
2019-03-03T11:08:53.905Z,11.30
2019-03-03T11:11:32.921Z,11.20
2019-03-03T11:14:14.967Z,11.50
2019-03-03T11:21:56.385Z,11.40
2019-03-03T11:24:26.604Z,11.10
2019-03-03T11:27:05.763Z,11.10
2019-03-03T11:29:51.359Z,11.30
2019-03-03T11:32:21.545Z,12.10
2019-03-03T11:34:57.494Z,12.10
2019-03-03T11:37:36.529Z,11.40
2019-03-03T11:40:09.826Z,11.30
2019-03-03T11:42:40.085Z,11.90
2019-03-03T11:45:11.841Z,12.20
2019-03-03T11:47:47.814Z,12.10
2019-03-03T11:50:20.878Z,11.40
2019-03-03T11:52:51.072Z,11.50
2019-03-03T11:55:33.558Z,11.50
2019-03-03T11:58:03.750Z,11.80
2019-03-03T12:00:33.973Z,11.70
2019-03-03T12:03:10.155Z,11.60
2019-03-03T12:05:43.170Z,11.80
2019-03-03T12:08:13.430Z,11.50
2019-03-03T12:10:49.535Z,11.70
2019-03-03T12:13:22.585Z,11.50
2019-03-03T12:15:58.733Z,11.80
2019-03-03T12:18:45.425Z,12.00
2019-03-03T12:23:54.366Z,12.10
2019-03-03T12:29:05.905Z,12.40
2019-03-03T12:34:25.400Z,12.50
2019-03-03T12:39:49.222Z,12.70
2019-03-03T12:42:22.477Z,12.40
2019-03-03T12:47:49.558Z,12.60
2019-03-03T12:50:25.803Z,12.90
2019-03-03T12:55:47.080Z,13.00
2019-03-03T12:58:32.334Z,12.70
2019-03-03T13:01:17.586Z,13.20
2019-03-03T13:03:53.468Z,13.30
2019-03-03T13:06:30.400Z,13.00
2019-03-03T13:09:09.750Z,13.20
2019-03-03T13:11:45.942Z,13.00
2019-03-03T13:19:24.415Z,12.80
2019-03-03T13:21:54.706Z,13.10
2019-03-03T13:24:33.913Z,13.20
2019-03-03T13:27:04.134Z,12.80
2019-03-03T13:29:43.569Z,13.00
2019-03-03T13:32:26.016Z,13.10
2019-03-03T13:34:56.206Z,13.00
2019-03-03T13:42:44.479Z,13.10
2019-03-03T13:45:13.760Z,13.30
2019-03-03T13:47:42.473Z,12.90
2019-03-03T13:50:14.468Z,12.80
2019-03-03T13:52:43.210Z,12.90
2019-03-03T13:55:12.889Z,13.00
2019-03-03T13:57:41.637Z,13.20
2019-03-03T14:00:13.301Z,13.40
2019-03-03T14:02:41.878Z,13.40
2019-03-03T14:05:10.862Z,13.40
2019-03-03T14:07:39.577Z,13.30
2019-03-03T14:10:09.965Z,13.10
2019-03-03T14:12:38.682Z,13.10
2019-03-03T14:15:15.922Z,13.40
2019-03-03T14:17:44.566Z,13.20
2019-03-03T14:20:21.413Z,13.30
2019-03-03T14:22:50.622Z,13.10
2019-03-03T14:25:19.245Z,13.30
2019-03-03T14:27:47.891Z,13.20
2019-03-03T14:30:19.345Z,13.40
2019-03-03T14:32:48.058Z,13.50
2019-03-03T14:35:17.088Z,12.90
2019-03-03T14:40:22.001Z,12.80
2019-03-03T14:42:50.723Z,13.00
2019-03-03T14:45:20.005Z,13.00
2019-03-03T14:50:19.077Z,13.10
2019-03-03T14:52:49.701Z,13.20
2019-03-03T14:55:19.693Z,13.10
2019-03-03T15:00:20.101Z,13.40
2019-03-03T15:02:48.649Z,13.00
2019-03-03T15:05:17.213Z,12.90
2019-03-03T15:10:14.653Z,12.60
2019-03-03T15:12:43.212Z,12.80
2019-03-03T15:15:14.929Z,12.60
2019-03-03T15:17:43.482Z,12.50
2019-03-03T15:20:12.201Z,13.00
2019-03-03T15:22:40.753Z,13.30
2019-03-03T15:25:11.373Z,12.90
2019-03-03T15:27:40.062Z,12.50
2019-03-03T15:30:15.102Z,12.80
2019-03-03T15:32:43.716Z,12.90
2019-03-03T15:35:12.441Z,13.00
2019-03-03T15:37:41.124Z,13.20
2019-03-03T15:40:12.339Z,12.80
2019-03-03T15:42:41.333Z,12.50
2019-03-03T15:45:12.918Z,12.30
2019-03-03T15:50:10.921Z,12.90
2019-03-03T15:52:39.537Z,12.50
2019-03-03T15:55:13.669Z,12.90
2019-03-03T15:57:42.353Z,12.80
2019-03-03T16:02:40.690Z,12.40
2019-03-03T16:05:10.809Z,12.70
2019-03-03T16:07:40.502Z,12.30
2019-03-03T16:10:11.918Z,12.30
2019-03-03T16:12:40.476Z,12.20
2019-03-03T16:15:11.485Z,12.60
2019-03-03T16:17:40.174Z,12.50
2019-03-03T16:20:14.542Z,12.30
2019-03-03T16:22:43.226Z,12.20
2019-03-03T16:25:14.622Z,12.70
2019-03-03T16:27:43.229Z,12.40
2019-03-03T16:30:18.058Z,12.20
2019-03-03T16:35:15.690Z,12.20
2019-03-03T16:37:44.373Z,12.40
2019-03-03T16:40:15.192Z,12.50
2019-03-03T16:42:43.805Z,12.70
2019-03-03T16:45:14.525Z,12.30
2019-03-03T16:47:43.138Z,11.70
2019-03-03T16:50:14.230Z,11.70
2019-03-03T16:52:42.886Z,12.20
2019-03-03T16:55:13.805Z,11.70
2019-03-03T16:57:42.430Z,12.10
2019-03-03T17:00:28.096Z,12.00
2019-03-03T17:02:56.783Z,11.90
2019-03-03T17:05:29.560Z,11.50
2019-03-03T17:07:58.189Z,12.00
2019-03-03T17:12:54.957Z,11.30
2019-03-03T17:15:27.892Z,11.50
2019-03-03T17:17:56.472Z,11.40
2019-03-03T17:20:25.018Z,11.60
2019-03-03T17:22:53.596Z,11.30
2019-03-03T17:25:39.867Z,11.20
2019-03-03T17:28:08.447Z,11.00
2019-03-03T17:30:37.115Z,11.10
2019-03-03T17:33:07.238Z,11.00
2019-03-03T17:35:37.433Z,11.00
2019-03-03T17:38:06.017Z,10.80
2019-03-03T17:40:34.569Z,10.90
2019-03-03T17:43:03.170Z,11.00
2019-03-03T17:45:32.121Z,10.80
2019-03-03T17:51:23.438Z,10.90
2019-03-03T17:59:50.609Z,11.10
2019-03-03T18:02:19.257Z,10.80
2019-03-03T18:04:47.882Z,10.60
2019-03-03T18:07:16.458Z,10.40
2019-03-03T18:09:45.077Z,10.30
2019-03-03T18:12:13.660Z,10.30
2019-03-03T18:14:42.205Z,10.40
2019-03-03T18:17:10.782Z,10.40
2019-03-03T18:19:39.337Z,10.50
2019-03-03T18:22:07.922Z,10.50
2019-03-03T18:24:36.541Z,10.00
2019-03-03T18:27:05.394Z,10.30
2019-03-03T18:29:33.945Z,10.40
2019-03-03T18:32:02.525Z,9.80
2019-03-03T18:34:31.141Z,9.70
2019-03-03T18:36:59.729Z,10.00
2019-03-03T18:39:28.281Z,10.00
2019-03-03T18:41:56.826Z,9.90
2019-03-03T18:44:25.474Z,10.10
2019-03-03T18:46:54.026Z,10.20
2019-03-03T18:49:22.608Z,10.20
2019-03-03T18:51:51.230Z,10.20
2019-03-03T18:54:19.877Z,10.20
2019-03-03T18:56:48.426Z,9.50
2019-03-03T18:59:17.001Z,9.50
2019-03-03T19:01:45.549Z,9.50
2019-03-03T19:04:14.197Z,10.00
2019-03-03T19:06:42.747Z,9.80
2019-03-03T19:09:13.135Z,9.80
2019-03-03T19:14:09.922Z,9.60
2019-03-03T19:16:38.469Z,9.90
2019-03-03T19:19:07.113Z,9.70
2019-03-03T19:21:35.661Z,9.70
2019-03-03T19:24:04.301Z,9.30
2019-03-03T19:26:32.850Z,9.20
2019-03-03T19:29:01.421Z,9.30
2019-03-03T19:33:58.863Z,9.60
2019-03-03T19:36:27.473Z,9.60
2019-03-03T19:38:56.120Z,9.60
2019-03-03T19:41:24.662Z,9.80
2019-03-03T19:43:53.310Z,9.10
2019-03-03T19:46:21.926Z,9.10
2019-03-03T19:48:50.577Z,9.30
2019-03-03T19:51:19.120Z,9.30
2019-03-03T19:53:47.766Z,9.50
2019-03-03T19:56:16.389Z,9.40
2019-03-03T19:58:44.955Z,9.00
2019-03-03T20:01:13.660Z,9.40
2019-03-03T20:03:42.215Z,9.20
2019-03-03T20:06:10.830Z,9.00
2019-03-03T20:08:39.477Z,9.50
2019-03-03T20:11:08.165Z,9.10
2019-03-03T20:13:36.807Z,9.10
2019-03-03T20:16:05.426Z,9.30
2019-03-03T20:18:33.966Z,9.20
2019-03-03T20:21:02.541Z,9.30
2019-03-03T20:23:31.089Z,9.10
2019-03-03T20:25:59.741Z,8.70
2019-03-03T20:28:28.358Z,9.00
2019-03-03T20:30:57.016Z,8.70
2019-03-03T20:33:25.551Z,8.90
2019-03-03T20:35:54.125Z,8.70
2019-03-03T20:38:22.669Z,8.80
2019-03-03T20:40:51.248Z,8.80
2019-03-03T20:43:19.872Z,9.00
2019-03-03T20:45:48.438Z,8.80
2019-03-03T20:48:18.689Z,8.70
2019-03-03T20:50:47.261Z,8.50
2019-03-03T20:53:15.875Z,8.70
2019-03-03T20:55:44.453Z,8.40
2019-03-03T20:58:13.001Z,8.50
2019-03-03T21:00:41.648Z,8.60
2019-03-03T21:03:10.191Z,8.20
2019-03-03T21:05:38.765Z,8.60
2019-03-03T21:08:07.377Z,8.20
2019-03-03T21:10:36.018Z,8.10
2019-03-03T21:13:04.632Z,8.10
2019-03-03T21:15:33.287Z,8.20
2019-03-03T21:20:31.865Z,8.30
2019-03-03T21:23:00.410Z,8.00
2019-03-03T21:25:28.985Z,8.10
2019-03-03T21:27:57.602Z,8.80
2019-03-03T21:30:29.671Z,8.20
2019-03-03T21:32:58.209Z,8.40
2019-03-03T21:35:26.794Z,8.30
2019-03-03T21:37:55.397Z,8.20
2019-03-03T21:40:27.568Z,8.10
2019-03-03T21:42:56.184Z,9.00
2019-03-03T21:45:26.964Z,8.10
2019-03-03T21:47:56.353Z,8.20
2019-03-03T21:52:53.786Z,8.30
2019-03-03T21:55:22.503Z,8.40
2019-03-03T21:57:51.071Z,8.60
2019-03-03T22:00:39.566Z,8.30
2019-03-03T22:03:08.178Z,8.60
2019-03-03T22:05:36.823Z,8.00
2019-03-03T22:08:05.366Z,8.20
2019-03-03T22:10:33.981Z,8.40
2019-03-03T22:22:58.721Z,8.70
2019-03-03T22:25:27.271Z,8.20
2019-03-03T22:27:55.848Z,7.90
2019-03-03T22:30:24.465Z,8.00
2019-03-03T22:32:53.113Z,8.10
2019-03-03T22:37:55.057Z,7.90
2019-03-03T22:40:24.947Z,7.90
2019-03-03T22:42:53.599Z,7.90
2019-03-03T22:45:22.581Z,8.10
2019-03-03T22:47:51.624Z,8.20
2019-03-03T22:52:48.893Z,8.30
2019-03-03T22:55:21.548Z,7.90
2019-03-03T23:00:28.969Z,8.40
2019-03-03T23:02:57.685Z,8.40
2019-03-03T23:14:48.255Z,7.90
2019-03-03T23:17:36.389Z,8.30
2019-03-03T23:20:22.032Z,8.40
2019-03-03T23:26:17.106Z,8.60
2019-03-03T23:42:54.277Z,8.10
2019-03-03T23:45:33.809Z,8.00
2019-03-03T23:51:00.206Z,8.00
2019-03-03T23:53:28.784Z,8.10
2019-03-03T23:55:57.333Z,8.30
2019-03-03T23:58:25.918Z,8.20
